Centerville, Iowa
Current Conditions -  °F | °C
As of 2:55 AM on Thursday 23 Oct 2014 (Local Time) from KTVK Reporting Station
Few Clouds Few Clouds  
Wind Chill: 50°   Ceiling: Unl
Heat Index: 50°   Visibility: 10mi
Dew Point: 43°   Wind: 8mph
Humidity: 76%   Direction: 160°SSE
Pressure: 30.12"   Gusts: NA
Location:  40.73°N, 92.87°W
Report Text: KTVK 230755Z AUTO 16007KT 10SM FEW075 10/06 A3012 RMK AO2
Loading
Personal Weather Stations






























Interactive Weather Map
Tropical Storm Tracking
New forecast layout! Learn more

10-Day Weather Forecast

Advertisements
Track Severe Weather on mobile